Time;durP1;ratioP1;P1;durP2;ratioP2;P2;SDS_P1;SDS_P2;PMS_P1;PMS_P2;Temp;Humidity;BMP_temperature;BMP_pressure;BME280_temperature;BME280_humidity;BME280_pressure;Samples;Min_cycle;Max_cycle;Signal;HPM_P1;HPM_P2
2024/01/05 00:01:11;;;;;;;;;0.00;0.00;;;;;10.25;82.61;99762.06;5077615;28;45401;-52
2024/01/05 00:03:37;;;;;;;;;0.00;0.00;;;;;10.27;82.39;99749.56;5073766;28;69330;-49
2024/01/05 00:06:02;;;;;;;;;3.00;0.00;;;;;10.29;82.60;99770.72;5077098;28;66263;-52
2024/01/05 00:08:27;;;;;;;;;0.00;0.00;;;;;10.34;82.78;99759.75;5073221;28;65936;-52
2024/01/05 00:10:53;;;;;;;;;0.00;0.00;;;;;10.35;82.20;99759.72;5073851;28;73166;-49
2024/01/05 00:13:18;;;;;;;;;0.00;0.00;;;;;10.39;82.67;99765.66;5074911;28;69037;-53
2024/01/05 00:15:43;;;;;;;;;2.00;0.00;;;;;10.42;81.52;99765.47;5073364;28;68534;-51
2024/01/05 00:18:09;;;;;;;;;0.00;0.00;;;;;10.45;81.89;99783.88;5074056;28;52260;-53
2024/01/05 00:20:34;;;;;;;;;0.00;0.00;;;;;10.48;81.97;99766.88;5073783;28;45374;-51
2024/01/05 00:22:59;;;;;;;;;2.00;0.00;;;;;10.51;82.10;99783.47;5063421;28;62848;-52
2024/01/05 00:25:25;;;;;;;;;1.00;0.00;;;;;10.49;79.94;99763.25;5056053;28;70482;-53
2024/01/05 00:27:51;;;;;;;;;0.00;0.00;;;;;10.51;79.63;99782.63;5073557;28;47210;-52
2024/01/05 00:30:17;;;;;;;;;1.33;0.00;;;;;10.51;81.11;99774.66;5076275;28;45670;-54
2024/01/05 00:32:42;;;;;;;;;0.67;0.67;;;;;10.53;81.40;99786.03;5076243;28;45288;-50
2024/01/05 00:35:08;;;;;;;;;0.00;0.00;;;;;10.52;80.39;99769.25;5069582;28;45603;-53
2024/01/05 00:37:33;;;;;;;;;0.67;0.67;;;;;10.52;81.09;99779.88;5072839;28;73882;-49
2024/01/05 00:39:58;;;;;;;;;0.00;0.00;;;;;10.53;81.00;99768.28;5074739;28;45762;-53
2024/01/05 00:42:24;;;;;;;;;0.00;0.00;;;;;10.53;78.30;99786.91;5058710;28;55492;-52
2024/01/05 00:44:49;;;;;;;;;0.00;0.00;;;;;10.55;80.25;99778.81;5076928;28;65976;-51
2024/01/05 00:47:15;;;;;;;;;0.00;0.00;;;;;10.53;78.52;99786.91;5058903;28;75179;-51
2024/01/05 00:49:40;;;;;;;;;1.00;0.00;;;;;10.58;79.74;99786.59;5076826;28;45283;-51
2024/01/05 00:52:05;;;;;;;;;0.00;0.00;;;;;10.61;80.10;99788.19;5071529;28;45339;-53
2024/01/05 00:54:31;;;;;;;;;0.00;0.00;;;;;10.61;78.29;99789.03;5078636;28;45366;-53
2024/01/05 00:56:56;;;;;;;;;2.00;1.00;;;;;10.62;79.07;99797.88;5068655;28;75579;-51
2024/01/05 00:59:21;;;;;;;;;0.00;0.00;;;;;10.62;78.35;99790.75;5077781;28;45423;-52
2024/01/05 01:01:47;;;;;;;;;0.00;0.00;;;;;10.64;77.59;99803.94;5077818;28;48569;-53
2024/01/05 01:04:13;;;;;;;;;0.00;0.00;;;;;10.64;77.71;99803.94;5075954;28;45379;-53
2024/01/05 01:06:38;;;;;;;;;0.67;0.00;;;;;10.65;78.22;99808.28;5069204;28;46216;-53
2024/01/05 01:09:04;;;;;;;;;0.67;0.00;;;;;10.63;77.84;99819.03;5068092;28;45390;-51
2024/01/05 01:11:29;;;;;;;;;0.00;0.00;;;;;10.64;77.33;99809.25;5072536;28;61766;-53
2024/01/05 01:13:54;;;;;;;;;0.00;0.00;;;;;10.63;76.93;99813.72;5076593;28;69343;-53
2024/01/05 01:16:20;;;;;;;;;0.00;0.00;;;;;10.61;77.23;99818.28;5076833;28;46167;-52
2024/01/05 01:18:45;;;;;;;;;1.00;0.00;;;;;10.54;75.31;99809.00;5047039;28;74158;-52
2024/01/05 01:21:10;;;;;;;;;0.00;0.00;;;;;10.51;75.22;99814.53;5070389;28;45794;-52
2024/01/05 01:23:35;;;;;;;;;1.00;0.00;;;;;10.41;72.98;99812.47;5071148;28;70364;-52
2024/01/05 01:26:01;;;;;;;;;0.00;0.00;;;;;10.38;72.73;99817.16;5069583;28;54115;-52
2024/01/05 01:28:27;;;;;;;;;0.33;0.00;;;;;10.36;72.93;99814.56;5077796;28;71860;-52
2024/01/05 01:30:53;;;;;;;;;0.00;0.00;;;;;10.34;72.59;99823.56;5080804;28;45279;-53
2024/01/05 01:33:18;;;;;;;;;0.00;0.00;;;;;10.32;73.42;99826.31;5081453;28;45351;-52
2024/01/05 01:35:43;;;;;;;;;0.00;0.00;;;;;10.29;72.75;99831.00;5076577;28;74698;-52
2024/01/05 01:38:09;;;;;;;;;0.00;0.00;;;;;10.25;69.96;99828.50;5061048;28;72421;-53
2024/01/05 01:40:34;;;;;;;;;0.00;0.00;;;;;10.25;71.97;99840.97;5080510;28;61485;-53
2024/01/05 01:42:59;;;;;;;;;0.00;0.00;;;;;10.24;72.28;99828.63;5072520;28;66163;-49
2024/01/05 01:45:25;;;;;;;;;0.00;0.00;;;;;10.23;70.00;99841.06;5073533;28;49467;-50
2024/01/05 01:47:51;;;;;;;;;0.00;0.00;;;;;10.18;71.97;99829.00;5048756;28;45358;-51
2024/01/05 01:50:18;;;;;;;;;0.00;0.00;;;;;10.17;71.38;99838.78;5074807;28;50831;-53
2024/01/05 01:52:46;;;;;;;;;0.00;0.00;;;;;10.17;71.14;99837.91;5080474;28;45273;-49
2024/01/05 01:55:12;;;;;;;;;0.00;0.00;;;;;10.18;72.05;99835.19;5060442;28;46196;-52
2024/01/05 01:57:38;;;;;;;;;0.00;0.00;;;;;10.16;70.28;99837.09;5070895;28;45688;-52
2024/01/05 02:00:04;;;;;;;;;0.00;0.00;;;;;10.08;66.66;99840.22;5061965;28;46009;-52
2024/01/05 02:02:30;;;;;;;;;0.00;0.00;;;;;10.12;71.36;99845.34;5062966;28;45368;-50
2024/01/05 02:04:56;;;;;;;;;0.33;0.00;;;;;10.11;70.86;99841.84;5072175;28;74512;-52
2024/01/05 02:07:21;;;;;;;;;1.00;0.00;;;;;10.13;70.84;99839.06;5071508;28;45340;-53
2024/01/05 02:09:47;;;;;;;;;0.00;0.00;;;;;10.14;71.36;99841.63;5060327;28;68436;-53
2024/01/05 02:12:12;;;;;;;;;2.00;0.00;;;;;10.15;69.51;99839.84;5078709;28;70633;-50
2024/01/05 02:14:38;;;;;;;;;0.00;0.00;;;;;10.16;70.33;99836.25;5061342;28;52276;-53
2024/01/05 02:17:04;;;;;;;;;0.00;0.00;;;;;10.17;71.44;99846.78;5079022;28;45636;-51
2024/01/05 02:19:30;;;;;;;;;0.00;0.00;;;;;10.16;70.54;99833.59;5079061;28;45434;-50
2024/01/05 02:21:59;;;;;;;;;0.00;0.00;;;;;10.14;69.51;99838.97;5068728;28;45424;-50
2024/01/05 02:24:24;;;;;;;;;0.00;0.00;;;;;10.13;70.46;99844.38;5057452;28;46237;-50
2024/01/05 02:26:49;;;;;;;;;0.00;0.00;;;;;10.14;70.79;99836.31;5056554;28;69502;-53
2024/01/05 02:29:21;;;;;;;;;0.00;0.00;;;;;10.13;70.84;99842.59;5065557;28;61909;-53
2024/01/05 02:31:46;;;;;;;;;0.00;0.00;;;;;10.14;69.97;99852.25;5080254;28;45374;-50
2024/01/05 02:34:12;;;;;;;;;0.00;0.00;;;;;10.13;70.02;99853.22;5071045;28;54470;-53
2024/01/05 02:36:37;;;;;;;;;0.00;0.00;;;;;10.10;70.46;99848.09;5057457;28;67559;-50
2024/01/05 02:39:02;;;;;;;;;0.00;0.00;;;;;10.09;68.78;99844.59;5073909;28;68280;-53
2024/01/05 02:41:28;;;;;;;;;0.00;0.00;;;;;10.09;70.20;99839.28;5072224;28;70360;-52
2024/01/05 02:43:53;;;;;;;;;0.00;0.00;;;;;10.08;70.11;99842.88;5078145;28;46008;-53
2024/01/05 02:46:18;;;;;;;;;0.00;0.00;;;;;10.05;69.92;99852.84;5067292;28;72563;-53
2024/01/05 02:48:44;;;;;;;;;0.00;0.00;;;;;10.00;70.85;99858.47;5067122;28;61947;-49
2024/01/05 02:51:10;;;;;;;;;1.00;0.00;;;;;9.99;70.27;99858.56;5060566;28;45394;-54
2024/01/05 02:53:35;;;;;;;;;0.00;0.00;;;;;9.98;70.29;99865.66;5044765;28;47128;-53
2024/01/05 02:56:01;;;;;;;;;0.00;0.00;;;;;9.99;69.72;99866.53;5073540;28;45419;-52
2024/01/05 02:58:26;;;;;;;;;0.00;0.00;;;;;10.02;70.65;99871.66;5074410;28;56757;-52
2024/01/05 03:00:51;;;;;;;;;0.00;0.00;;;;;10.04;70.14;99880.38;5049552;28;50465;-50
2024/01/05 03:03:18;;;;;;;;;0.00;0.00;;;;;10.04;70.49;99873.25;5068165;28;69709;-51
2024/01/05 03:05:43;;;;;;;;;1.00;0.00;;;;;10.05;70.57;99874.09;5074709;28;45403;-53
2024/01/05 03:08:09;;;;;;;;;0.00;0.00;;;;;10.07;70.58;99881.03;5066447;28;69241;-53
2024/01/05 03:10:34;;;;;;;;;0.00;0.00;;;;;10.08;70.63;99884.56;5069734;28;57195;-52
2024/01/05 03:12:59;;;;;;;;;0.00;0.00;;;;;10.09;70.72;99876.47;5077945;28;73527;-49
2024/01/05 03:15:25;;;;;;;;;0.00;0.00;;;;;10.13;71.13;99892.22;5078324;28;72159;-52
2024/01/05 03:17:50;;;;;;;;;1.00;0.00;;;;;10.10;71.19;99880.84;5070549;28;68282;-50
2024/01/05 03:20:17;;;;;;;;;1.00;0.00;;;;;10.10;70.60;99885.28;5065726;28;45403;-49
2024/01/05 03:22:42;;;;;;;;;0.00;0.00;;;;;10.05;69.79;99882.06;5079092;28;46991;-50
2024/01/05 03:25:08;;;;;;;;;0.00;0.00;;;;;10.04;70.24;99888.34;5073504;28;67534;-49
2024/01/05 03:27:33;;;;;;;;;0.00;0.00;;;;;10.03;70.44;99887.47;5071646;28;45493;-50
2024/01/05 03:29:58;;;;;;;;;0.00;0.00;;;;;10.02;70.75;99885.78;5059521;28;70460;-53
2024/01/05 03:32:24;;;;;;;;;0.00;0.00;;;;;10.02;70.75;99895.56;5069056;28;53655;-53
2024/01/05 03:34:49;;;;;;;;;0.00;0.00;;;;;9.99;69.02;99890.44;5062040;28;72175;-53
2024/01/05 03:37:14;;;;;;;;;0.00;0.00;;;;;9.97;69.65;99887.00;5056686;28;48771;-53
2024/01/05 03:39:40;;;;;;;;;0.00;0.00;;;;;9.93;70.45;99891.66;5061525;28;69367;-51
2024/01/05 03:42:05;;;;;;;;;0.00;0.00;;;;;9.87;69.68;99884.94;5071058;28;73318;-52
2024/01/05 03:44:30;;;;;;;;;0.00;0.00;;;;;9.83;69.78;99888.72;5074723;28;69615;-54
2024/01/05 03:46:56;;;;;;;;;0.00;0.00;;;;;9.79;70.26;99889.00;5066384;28;45443;-51
2024/01/05 03:49:21;;;;;;;;;0.67;0.00;;;;;9.70;69.74;99883.31;5079143;28;45628;-51
2024/01/05 03:51:46;;;;;;;;;0.00;0.00;;;;;9.65;70.19;99885.38;5078449;28;52944;-52
2024/01/05 03:54:12;;;;;;;;;0.00;0.00;;;;;9.63;70.62;99883.78;5047026;28;58132;-52
2024/01/05 03:56:41;;;;;;;;;0.00;0.00;;;;;9.60;70.47;99904.25;5068947;28;60805;-51
2024/01/05 03:59:07;;;;;;;;;0.00;0.00;;;;;9.61;70.68;99881.22;5068216;28;45502;-51
2024/01/05 04:01:33;;;;;;;;;0.00;0.00;;;;;9.60;70.65;99898.94;5068998;28;46123;-53
2024/01/05 04:03:59;;;;;;;;;0.00;0.00;;;;;9.62;70.89;99890.91;5078459;28;45427;-53
2024/01/05 04:06:24;;;;;;;;;0.00;0.00;;;;;9.58;70.45;99889.34;5078873;28;45492;-51
2024/01/05 04:08:51;;;;;;;;;0.00;0.00;;;;;9.47;71.04;99897.97;5072683;28;45462;-51
2024/01/05 04:11:20;;;;;;;;;0.00;0.00;;;;;9.36;71.05;99900.38;5078533;28;47231;-52
2024/01/05 04:13:47;;;;;;;;;0.00;0.00;;;;;9.27;71.44;99900.00;5060330;28;45442;-52
2024/01/05 04:16:12;;;;;;;;;0.00;0.00;;;;;9.20;71.80;99898.63;5078270;28;45635;-50
2024/01/05 04:18:37;;;;;;;;;0.00;0.00;;;;;9.15;72.12;99899.88;5059443;28;46490;-51
2024/01/05 04:21:03;;;;;;;;;0.00;0.00;;;;;9.08;72.53;99913.47;5063798;28;70776;-50
2024/01/05 04:23:28;;;;;;;;;0.00;0.00;;;;;9.02;72.06;99907.69;5077409;28;45406;-52
2024/01/05 04:25:53;;;;;;;;;0.00;0.00;;;;;8.99;72.39;99913.16;5076929;28;64725;-52
2024/01/05 04:28:20;;;;;;;;;0.00;0.00;;;;;8.93;72.98;99911.72;5077551;28;65122;-51
2024/01/05 04:30:46;;;;;;;;;0.00;0.00;;;;;8.90;73.34;99903.94;5077420;28;45376;-53
2024/01/05 04:33:12;;;;;;;;;0.00;0.00;;;;;8.87;73.13;99897.00;5073713;28;45426;-54
2024/01/05 04:35:37;;;;;;;;;0.00;0.00;;;;;8.81;73.00;99902.66;5075980;28;45405;-53
2024/01/05 04:38:02;;;;;;;;;0.00;0.00;;;;;8.77;73.16;99896.69;5057925;28;45398;-53
2024/01/05 04:40:28;;;;;;;;;0.00;0.00;;;;;8.74;73.72;99896.84;5077569;28;46025;-51
2024/01/05 04:42:53;;;;;;;;;0.00;0.00;;;;;8.71;73.41;99899.69;5074309;28;71493;-51
2024/01/05 04:45:19;;;;;;;;;0.00;0.00;;;;;8.70;73.60;99907.72;5059494;28;45301;-52
2024/01/05 04:47:46;;;;;;;;;0.00;0.00;;;;;8.65;73.49;99907.97;5056589;28;45375;-52
2024/01/05 04:50:11;;;;;;;;;0.00;0.00;;;;;8.62;73.32;99905.50;5065223;28;46329;-51
2024/01/05 04:52:37;;;;;;;;;0.00;0.00;;;;;8.60;73.90;99912.69;5064183;28;48932;-51
2024/01/05 04:55:03;;;;;;;;;0.00;0.00;;;;;8.58;73.61;99912.78;5073723;28;47720;-52
2024/01/05 04:57:28;;;;;;;;;0.00;0.00;;;;;8.56;74.02;99921.75;5069342;28;45503;-50
2024/01/05 04:59:54;;;;;;;;;0.33;0.00;;;;;8.53;74.18;99913.97;5063585;28;61456;-49
2024/01/05 05:02:19;;;;;;;;;0.00;0.00;;;;;8.49;74.23;99920.41;5077490;28;45351;-51
2024/01/05 05:04:44;;;;;;;;;0.00;0.00;;;;;8.47;74.40;99922.25;5075226;28;46687;-51
2024/01/05 05:07:10;;;;;;;;;0.00;0.00;;;;;8.40;74.19;99921.72;5071162;28;45434;-52
2024/01/05 05:09:35;;;;;;;;;0.00;0.00;;;;;8.40;74.44;99927.00;5079783;28;50410;-56
2024/01/05 05:12:00;;;;;;;;;0.00;0.00;;;;;8.36;74.76;99921.03;5066678;28;45430;-52
2024/01/05 05:14:26;;;;;;;;;0.00;0.00;;;;;8.34;74.24;99917.59;5079460;28;69463;-50
2024/01/05 05:16:51;;;;;;;;;0.00;0.00;;;;;8.32;74.84;99924.78;5061769;28;72680;-51
2024/01/05 05:19:16;;;;;;;;;0.00;0.00;;;;;8.32;74.81;99923.91;5061934;28;74286;-53
2024/01/05 05:21:41;;;;;;;;;0.00;0.00;;;;;8.29;75.09;99930.22;5061903;28;72948;-51
2024/01/05 05:24:07;;;;;;;;;0.00;0.00;;;;;8.28;75.29;99934.69;5076923;28;68159;-52
2024/01/05 05:26:32;;;;;;;;;0.00;0.00;;;;;8.29;74.98;99938.19;5077210;28;61641;-53
2024/01/05 05:28:57;;;;;;;;;0.00;0.00;;;;;8.27;75.30;99929.47;5079745;28;75670;-52
2024/01/05 05:31:23;;;;;;;;;1.00;0.00;;;;;8.25;75.38;99940.16;5080300;28;69980;-53
2024/01/05 05:33:48;;;;;;;;;0.00;0.00;;;;;8.24;75.27;99934.94;5074783;28;66689;-52
2024/01/05 05:36:14;;;;;;;;;0.00;0.00;;;;;8.23;75.49;99933.22;5049406;28;45644;-50
2024/01/05 05:38:39;;;;;;;;;0.67;0.00;;;;;8.21;75.33;99932.44;5058650;28;75704;-51
2024/01/05 05:41:04;;;;;;;;;0.00;0.00;;;;;8.19;75.61;99937.00;5077696;28;72160;-52
2024/01/05 05:43:30;;;;;;;;;0.00;0.00;;;;;8.18;75.24;99930.81;5073072;28;45537;-51
2024/01/05 05:45:56;;;;;;;;;0.00;0.00;;;;;8.16;75.22;99934.50;5060676;28;45522;-50
2024/01/05 05:48:22;;;;;;;;;0.00;0.00;;;;;8.15;75.58;99936.28;5080108;28;45375;-52
2024/01/05 05:50:48;;;;;;;;;0.00;0.00;;;;;8.13;75.72;99939.97;5068153;28;45455;-52
2024/01/05 05:53:13;;;;;;;;;0.00;0.00;;;;;8.11;75.37;99946.19;5073627;28;45327;-53
2024/01/05 05:55:39;;;;;;;;;0.33;0.00;;;;;8.09;75.90;99944.56;5078250;28;62721;-51
2024/01/05 05:58:04;;;;;;;;;0.00;0.00;;;;;8.08;75.83;99945.50;5070511;28;46010;-53
2024/01/05 06:00:30;;;;;;;;;0.00;0.00;;;;;8.07;75.72;99949.06;5064318;28;65130;-52
2024/01/05 06:02:56;;;;;;;;;0.00;0.00;;;;;8.07;75.40;99957.88;5071442;28;45381;-50
2024/01/05 06:05:21;;;;;;;;;0.00;0.00;;;;;8.06;75.84;99963.28;5061124;28;54476;-51
2024/01/05 06:07:47;;;;;;;;;1.00;0.00;;;;;8.05;75.88;99959.75;5075580;28;46072;-52
2024/01/05 06:10:12;;;;;;;;;0.00;0.00;;;;;8.03;75.76;99956.34;5075530;28;69599;-52
2024/01/05 06:12:38;;;;;;;;;1.00;0.00;;;;;8.03;76.05;99966.94;5062034;28;45328;-52
2024/01/05 06:15:04;;;;;;;;;0.00;0.00;;;;;8.06;76.45;99965.94;5076814;28;45443;-52
2024/01/05 06:17:29;;;;;;;;;2.00;0.00;;;;;8.08;76.45;99972.84;5068498;28;46619;-52
2024/01/05 06:19:54;;;;;;;;;0.00;0.00;;;;;8.14;76.40;99984.06;5065737;28;63385;-49
2024/01/05 06:22:20;;;;;;;;;0.00;0.00;;;;;8.19;75.85;99979.38;5059712;28;69201;-51
2024/01/05 06:24:46;;;;;;;;;0.00;0.00;;;;;8.24;75.88;99985.28;5073011;28;46368;-51
2024/01/05 06:27:11;;;;;;;;;0.00;0.00;;;;;8.24;75.55;99983.47;5072226;28;46142;-49
2024/01/05 06:29:37;;;;;;;;;0.00;0.00;;;;;8.24;75.88;99985.28;5076107;28;45464;-49
2024/01/05 06:32:02;;;;;;;;;0.00;0.00;;;;;8.21;76.08;99988.09;5078771;28;45388;-52
2024/01/05 06:34:28;;;;;;;;;0.00;0.00;;;;;8.16;75.80;99987.47;5080290;28;45641;-52
2024/01/05 06:36:53;;;;;;;;;0.00;0.00;;;;;8.13;76.09;99982.34;5072000;28;45975;-52
2024/01/05 06:39:18;;;;;;;;;1.00;0.00;;;;;8.10;76.14;99980.72;5075774;28;69708;-51
2024/01/05 06:41:44;;;;;;;;;0.00;0.00;;;;;8.06;76.20;99987.13;5079066;28;64153;-52
2024/01/05 06:44:09;;;;;;;;;0.00;0.00;;;;;8.02;76.33;99989.06;5078753;28;66154;-51
2024/01/05 06:46:34;;;;;;;;;0.00;0.00;;;;;7.99;76.16;99986.59;5056338;28;45414;-49
2024/01/05 06:49:00;;;;;;;;;0.00;0.00;;;;;7.98;76.86;99984.88;5075771;28;51902;-52
2024/01/05 06:51:29;;;;;;;;;0.00;0.00;;;;;7.97;76.73;99984.94;5079914;28;45759;-52
2024/01/05 06:53:55;;;;;;;;;0.00;0.00;;;;;7.92;76.80;99986.03;5079524;28;45424;-52
2024/01/05 06:56:21;;;;;;;;;0.00;0.00;;;;;7.91;77.06;99991.41;5079234;28;46859;-50
2024/01/05 06:58:46;;;;;;;;;0.00;0.00;;;;;7.86;77.15;99993.44;5077931;28;73248;-50
2024/01/05 07:01:13;;;;;;;;;0.00;0.00;;;;;7.84;77.73;99997.97;5079366;28;45362;-51
2024/01/05 07:03:38;;;;;;;;;0.00;0.00;;;;;7.82;77.85;99995.38;5079408;28;45382;-53
2024/01/05 07:06:04;;;;;;;;;0.00;0.00;;;;;7.80;77.75;99999.06;5078038;28;75553;-52
2024/01/05 07:08:29;;;;;;;;;1.00;0.00;;;;;7.79;78.27;100011.44;5074058;28;45591;-52
2024/01/05 07:10:54;;;;;;;;;0.00;0.00;;;;;7.77;78.38;100008.03;5071535;28;68051;-50
2024/01/05 07:13:20;;;;;;;;;0.00;0.00;;;;;7.77;78.48;100010.66;5073078;28;64687;-53
2024/01/05 07:15:45;;;;;;;;;0.00;0.00;;;;;7.75;78.47;100008.06;5077135;28;74434;-53
2024/01/05 07:18:11;;;;;;;;;0.00;0.00;;;;;7.72;78.65;100004.75;5059794;28;74189;-54
2024/01/05 07:20:37;;;;;;;;;0.00;0.00;;;;;7.68;78.84;100011.97;5078562;28;45410;-53
2024/01/05 07:23:02;;;;;;;;;0.67;0.67;;;;;7.67;78.80;100015.56;5047518;28;45415;-52
2024/01/05 07:25:27;;;;;;;;;0.00;0.00;;;;;7.60;79.40;100012.34;5051533;28;46360;-53
2024/01/05 07:27:53;;;;;;;;;0.00;0.00;;;;;7.58;78.97;100008.91;5075495;28;45399;-52
2024/01/05 07:30:18;;;;;;;;;2.00;0.00;;;;;7.53;79.65;100012.75;5077355;28;54108;-53
2024/01/05 07:32:45;;;;;;;;;0.00;0.00;;;;;7.52;79.66;100021.59;5078799;28;55078;-52
2024/01/05 07:35:10;;;;;;;;;0.00;0.00;;;;;7.52;79.92;100034.84;5075818;28;45524;-53
2024/01/05 07:37:37;;;;;;;;;0.00;0.00;;;;;7.51;80.20;100025.19;5072164;28;45591;-51
2024/01/05 07:40:03;;;;;;;;;0.67;0.00;;;;;7.50;80.25;100037.56;5076591;28;45398;-52
2024/01/05 07:42:28;;;;;;;;;2.00;0.00;;;;;7.47;80.14;100036.84;5060695;28;45796;-51
2024/01/05 07:44:54;;;;;;;;;0.00;0.00;;;;;7.44;80.48;100036.09;5078346;28;45714;-53
2024/01/05 07:47:19;;;;;;;;;1.00;0.00;;;;;7.45;80.71;100040.44;5078839;28;45469;-50
2024/01/05 07:49:45;;;;;;;;;0.00;0.00;;;;;7.47;80.24;100036.84;5077335;28;68039;-52
2024/01/05 07:52:10;;;;;;;;;0.00;0.00;;;;;7.46;80.78;100049.25;5076748;28;66288;-51
2024/01/05 07:54:39;;;;;;;;;0.00;0.00;;;;;7.45;81.07;100045.72;5076830;28;46358;-54
2024/01/05 07:57:04;;;;;;;;;0.67;0.00;;;;;7.45;80.72;100048.38;5075589;28;47877;-48
2024/01/05 07:59:30;;;;;;;;;0.00;0.00;;;;;7.44;80.67;100048.44;5064769;28;67145;-55
2024/01/05 08:01:55;;;;;;;;;0.00;0.00;;;;;7.43;80.92;100057.31;5077334;28;68055;-55
2024/01/05 08:04:20;;;;;;;;;0.67;0.00;;;;;7.43;81.36;100062.59;5078233;28;56225;-56
2024/01/05 08:06:50;;;;;;;;;1.00;1.00;;;;;7.42;81.55;100066.22;5059691;28;66836;-54
2024/01/05 08:09:15;;;;;;;;;0.00;0.00;;;;;7.42;81.58;100067.06;5067840;28;45227;-55
2024/01/05 08:11:41;;;;;;;;;3.00;0.00;;;;;7.43;81.81;100060.84;5069185;28;45422;-56
2024/01/05 08:14:07;;;;;;;;;0.00;0.00;;;;;7.44;81.71;100065.19;5072785;28;75054;-56
2024/01/05 08:16:33;;;;;;;;;0.00;0.00;;;;;7.47;81.21;100065.97;5073504;28;45537;-56
2024/01/05 08:18:58;;;;;;;;;1.00;1.00;;;;;7.46;81.92;100067.75;5074416;28;45824;-57
2024/01/05 08:21:24;;;;;;;;;0.67;0.00;;;;;7.47;81.30;100072.13;5076258;28;45250;-57
2024/01/05 08:23:49;;;;;;;;;1.00;1.00;;;;;7.47;81.98;100066.84;5055224;28;45996;-56
2024/01/05 08:26:18;;;;;;;;;0.00;0.00;;;;;7.48;81.73;100070.34;5071476;28;45514;-56
2024/01/05 08:28:44;;;;;;;;;0.00;0.00;;;;;7.50;81.72;100069.31;5068698;28;45423;-57
2024/01/05 08:31:09;;;;;;;;;0.00;0.00;;;;;7.52;81.93;100071.88;5074983;28;45285;-56
2024/01/05 08:33:35;;;;;;;;;2.67;1.00;;;;;7.53;81.96;100074.47;5048005;28;46604;-55
2024/01/05 08:36:00;;;;;;;;;0.00;0.00;;;;;7.55;82.09;100072.59;5074330;28;71485;-55
2024/01/05 08:38:25;;;;;;;;;0.00;0.00;;;;;7.57;82.29;100070.75;5075921;28;45656;-55
2024/01/05 08:40:52;;;;;;;;;1.00;1.00;;;;;7.60;81.67;100073.25;5050985;28;63398;-55
2024/01/05 08:43:18;;;;;;;;;0.00;0.00;;;;;7.62;81.66;100070.50;5062298;28;46139;-56
2024/01/05 08:45:44;;;;;;;;;1.00;1.00;;;;;7.62;81.90;100073.16;5074198;28;45426;-55
2024/01/05 08:48:11;;;;;;;;;1.00;1.00;;;;;7.64;81.81;100071.31;5076220;28;45520;-56
2024/01/05 08:50:37;;;;;;;;;2.00;0.67;;;;;7.68;82.15;100082.56;5077872;28;45482;-57
2024/01/05 08:53:03;;;;;;;;;2.00;1.00;;;;;7.70;82.19;100076.28;5070761;28;46115;-57
2024/01/05 08:55:29;;;;;;;;;2.00;2.00;;;;;7.73;81.50;100081.44;5075936;28;45321;-57
2024/01/05 08:57:54;;;;;;;;;2.00;2.00;;;;;7.75;81.67;100084.84;5066638;28;45518;-56
2024/01/05 09:00:19;;;;;;;;;2.67;1.00;;;;;7.74;81.38;100088.44;5062725;28;56840;-55
2024/01/05 09:02:45;;;;;;;;;2.00;2.00;;;;;7.76;81.23;100083.06;5073513;28;46363;-57
2024/01/05 09:05:10;;;;;;;;;1.67;1.00;;;;;7.77;81.66;100088.28;5063817;28;72990;-56
2024/01/05 09:07:35;;;;;;;;;1.00;1.00;;;;;7.79;81.53;100096.16;5075846;28;45332;-57
2024/01/05 09:10:01;;;;;;;;;0.00;0.00;;;;;7.81;81.43;100096.06;5067906;28;54044;-56
2024/01/05 09:12:27;;;;;;;;;0.00;0.00;;;;;7.84;81.64;100109.19;5073217;28;74590;-57
2024/01/05 09:14:52;;;;;;;;;1.00;1.00;;;;;7.88;81.58;100103.63;5071772;28;45457;-57
2024/01/05 09:17:18;;;;;;;;;1.00;1.00;;;;;7.91;81.29;100111.44;5051265;28;45439;-57
2024/01/05 09:19:44;;;;;;;;;1.00;1.00;;;;;7.93;81.24;100116.66;5063294;28;69315;-57
2024/01/05 09:22:10;;;;;;;;;1.67;1.67;;;;;7.98;80.89;100111.09;5076133;28;46183;-57
2024/01/05 09:24:36;;;;;;;;;1.00;1.00;;;;;8.01;81.45;100119.78;5077202;28;45435;-58
2024/01/05 09:27:04;;;;;;;;;2.00;1.00;;;;;8.05;80.92;100123.97;5060459;28;45751;-58
2024/01/05 09:29:31;;;;;;;;;0.00;0.00;;;;;8.11;80.92;100122.81;5072616;28;45430;-57
2024/01/05 09:31:56;;;;;;;;;1.33;1.33;;;;;8.15;81.08;100132.31;5072711;28;46461;-58
2024/01/05 09:34:22;;;;;;;;;0.00;0.00;;;;;8.15;80.43;100128.81;5077500;28;45372;-58
2024/01/05 09:36:48;;;;;;;;;0.00;0.00;;;;;8.17;80.59;100129.59;5074925;28;45439;-58
2024/01/05 09:39:13;;;;;;;;;0.33;0.33;;;;;8.22;80.60;100133.72;5074500;28;45477;-58
2024/01/05 09:41:41;;;;;;;;;1.00;1.00;;;;;8.27;80.68;100139.63;5074177;28;46005;-57
2024/01/05 09:44:06;;;;;;;;;3.00;1.00;;;;;8.30;80.08;100127.19;5071162;28;45398;-57
2024/01/05 09:46:33;;;;;;;;;2.67;1.00;;;;;8.33;79.64;100140.25;5080679;28;45276;-57
2024/01/05 09:49:00;;;;;;;;;1.33;1.00;;;;;8.37;79.91;100128.56;5077253;28;45635;-58
2024/01/05 09:51:29;;;;;;;;;1.00;1.00;;;;;8.41;79.90;100124.84;5076419;28;47197;-57
2024/01/05 09:53:54;;;;;;;;;0.67;0.67;;;;;8.49;79.89;100138.56;5073058;28;45395;-58
2024/01/05 09:56:21;;;;;;;;;0.00;0.00;;;;;8.58;79.65;100143.41;5044373;28;45519;-58
2024/01/05 09:58:47;;;;;;;;;1.00;1.00;;;;;9.05;80.96;100149.78;5063667;28;45914;-58
2024/01/05 10:01:26;;;;;;;;;3.00;3.00;;;;;10.27;80.53;100144.72;5040517;28;45478;-58
2024/01/05 10:04:01;;;;;;;;;2.00;2.00;;;;;11.56;77.55;100153.72;5066393;28;45485;-55
2024/01/05 10:06:28;;;;;;;;;1.00;1.00;;;;;12.68;73.60;100149.91;5068207;28;45576;-57
2024/01/05 10:08:58;;;;;;;;;0.67;0.67;;;;;13.64;67.78;100157.38;5042468;28;45533;-58
2024/01/05 10:11:40;;;;;;;;;4.00;3.00;;;;;14.48;69.91;100156.50;5078807;28;45351;-58
2024/01/05 10:14:06;;;;;;;;;1.67;1.00;;;;;15.08;63.68;100154.56;5075348;28;45504;-58
2024/01/05 10:16:39;;;;;;;;;2.67;1.00;;;;;15.43;63.05;100158.09;5075161;28;45513;-58
2024/01/05 10:19:17;;;;;;;;;0.00;0.00;;;;;15.81;63.18;100160.38;5067935;28;45665;-58
2024/01/05 10:21:47;;;;;;;;;1.00;1.00;;;;;16.24;61.58;100155.91;5075897;28;45598;-58
2024/01/05 10:24:29;;;;;;;;;1.00;1.00;;;;;16.39;59.51;100159.16;5064279;28;45533;-58
2024/01/05 10:27:04;;;;;;;;;0.00;0.00;;;;;16.01;62.57;100153.34;5057863;28;45543;-58
2024/01/05 10:29:44;;;;;;;;;0.00;0.00;;;;;15.88;59.36;100161.56;5056144;28;45825;-58
2024/01/05 10:32:14;;;;;;;;;2.00;0.00;;;;;16.03;56.83;100159.44;5075101;28;46285;-58
2024/01/05 10:34:48;;;;;;;;;1.00;1.00;;;;;16.28;59.35;100151.16;5077284;28;45470;-58
2024/01/05 10:37:14;;;;;;;;;2.00;1.00;;;;;16.54;58.94;100154.31;5074563;28;46050;-58
2024/01/05 10:39:53;;;;;;;;;3.00;0.00;;;;;16.70;57.16;100143.97;5060350;28;45550;-58
2024/01/05 10:42:24;;;;;;;;;2.67;1.67;;;;;16.95;55.37;100135.66;5074587;28;47259;-58
2024/01/05 10:44:55;;;;;;;;;2.00;2.00;;;;;17.11;56.65;100140.53;5075052;28;45404;-58
2024/01/05 10:47:31;;;;;;;;;0.33;0.33;;;;;17.32;52.32;100141.28;5051145;28;45498;-58
2024/01/05 10:49:57;;;;;;;;;3.00;1.67;;;;;17.52;53.78;100138.66;5061478;28;45448;-58
2024/01/05 10:52:24;;;;;;;;;2.67;1.00;;;;;17.65;52.22;100138.41;5076000;28;46077;-58
2024/01/05 10:54:52;;;;;;;;;1.33;1.00;;;;;17.77;56.43;100142.69;5067623;28;45681;-58
2024/01/05 10:57:18;;;;;;;;;0.67;0.67;;;;;17.88;53.84;100136.31;5075986;28;45558;-58
2024/01/05 10:59:54;;;;;;;;;0.00;0.00;;;;;17.83;53.04;100138.56;5058436;28;45883;-56
2024/01/05 11:02:31;;;;;;;;;2.33;2.33;;;;;17.91;53.07;100143.25;5069393;28;46261;-56
2024/01/05 11:05:00;;;;;;;;;0.00;0.00;;;;;17.87;55.16;100131.91;5066944;28;45410;-56
2024/01/05 11:07:30;;;;;;;;;1.33;0.00;;;;;18.01;53.55;100128.00;5072415;28;45637;-57
2024/01/05 11:10:37;;;;;;;;;0.00;0.00;;;;;18.13;50.16;100126.03;5066292;28;45412;-56
2024/01/05 11:13:20;;;;;;;;;0.00;0.00;;;;;18.12;45.85;100127.88;5038595;28;46483;-57
2024/01/05 11:16:02;;;;;;;;;0.00;0.00;;;;;17.92;53.99;100140.41;5075523;28;45407;-57
2024/01/05 11:18:46;;;;;;;;;0.00;0.00;;;;;17.36;53.83;100136.50;5058784;28;45699;-57
2024/01/05 11:21:24;;;;;;;;;0.00;0.00;;;;;16.50;53.69;100145.69;5065815;28;45626;-57
2024/01/05 11:23:50;;;;;;;;;0.00;0.00;;;;;15.81;53.75;100130.88;5050735;28;46117;-58
2024/01/05 11:26:35;;;;;;;;;0.00;0.00;;;;;15.20;55.03;100118.78;5042136;28;45424;-58
2024/01/05 11:29:03;;;;;;;;;1.33;1.00;;;;;14.74;55.92;100134.97;5066261;28;45829;-58
2024/01/05 11:31:47;;;;;;;;;2.00;1.33;;;;;14.47;56.01;100141.44;5072122;28;45520;-58